sensor_id;sensor_type;location;lat;lon;timestamp;temperature;humidity
67157;SHT31;54086;50.126;8.710;2022-11-15T00:01:30;9.50;90.72
67157;SHT31;54086;50.126;8.710;2022-11-15T00:03:55;9.46;90.81
67157;SHT31;54086;50.126;8.710;2022-11-15T00:06:21;9.43;90.74
67157;SHT31;54086;50.126;8.710;2022-11-15T00:08:46;9.42;90.83
67157;SHT31;54086;50.126;8.710;2022-11-15T00:11:12;9.43;90.75
67157;SHT31;54086;50.126;8.710;2022-11-15T00:13:38;9.43;90.70
67157;SHT31;54086;50.126;8.710;2022-11-15T00:16:03;9.43;90.69
67157;SHT31;54086;50.126;8.710;2022-11-15T00:18:30;9.36;90.79
67157;SHT31;54086;50.126;8.710;2022-11-15T00:20:56;9.38;90.87
67157;SHT31;54086;50.126;8.710;2022-11-15T00:23:27;9.33;90.92
67157;SHT31;54086;50.126;8.710;2022-11-15T00:25:59;9.33;90.86
67157;SHT31;54086;50.126;8.710;2022-11-15T00:28:25;9.35;90.55
67157;SHT31;54086;50.126;8.710;2022-11-15T00:30:51;9.39;90.57
67157;SHT31;54086;50.126;8.710;2022-11-15T00:33:16;9.30;90.67
67157;SHT31;54086;50.126;8.710;2022-11-15T00:35:42;9.26;90.77
67157;SHT31;54086;50.126;8.710;2022-11-15T00:38:07;9.26;90.82
67157;SHT31;54086;50.126;8.710;2022-11-15T00:40:33;9.25;90.81
67157;SHT31;54086;50.126;8.710;2022-11-15T00:42:58;9.25;90.96
67157;SHT31;54086;50.126;8.710;2022-11-15T00:45:24;9.23;91.02
67157;SHT31;54086;50.126;8.710;2022-11-15T00:47:50;9.25;91.03
67157;SHT31;54086;50.126;8.710;2022-11-15T00:50:15;9.28;90.93
67157;SHT31;54086;50.126;8.710;2022-11-15T00:52:41;9.29;90.85
67157;SHT31;54086;50.126;8.710;2022-11-15T00:55:07;9.28;90.70
67157;SHT31;54086;50.126;8.710;2022-11-15T00:57:33;9.30;90.90
67157;SHT31;54086;50.126;8.710;2022-11-15T00:59:58;9.35;90.82
67157;SHT31;54086;50.126;8.710;2022-11-15T01:02:23;9.35;90.89
67157;SHT31;54086;50.126;8.710;2022-11-15T01:04:49;9.30;90.99
67157;SHT31;54086;50.126;8.710;2022-11-15T01:07:14;9.38;90.91
67157;SHT31;54086;50.126;8.710;2022-11-15T01:09:39;9.28;91.08
67157;SHT31;54086;50.126;8.710;2022-11-15T01:12:05;9.20;91.40
67157;SHT31;54086;50.126;8.710;2022-11-15T01:14:30;9.28;91.24
67157;SHT31;54086;50.126;8.710;2022-11-15T01:16:56;9.26;91.28
67157;SHT31;54086;50.126;8.710;2022-11-15T01:19:21;9.29;91.29
67157;SHT31;54086;50.126;8.710;2022-11-15T01:21:50;9.26;91.33
67157;SHT31;54086;50.126;8.710;2022-11-15T01:24:15;9.23;91.41
67157;SHT31;54086;50.126;8.710;2022-11-15T01:26:41;9.19;91.32
67157;SHT31;54086;50.126;8.710;2022-11-15T01:29:06;9.18;91.48
67157;SHT31;54086;50.126;8.710;2022-11-15T01:31:32;9.22;91.46
67157;SHT31;54086;50.126;8.710;2022-11-15T01:33:57;9.18;91.56
67157;SHT31;54086;50.126;8.710;2022-11-15T01:36:22;9.12;91.61
67157;SHT31;54086;50.126;8.710;2022-11-15T01:38:55;9.09;91.60
67157;SHT31;54086;50.126;8.710;2022-11-15T01:41:23;9.11;91.57
67157;SHT31;54086;50.126;8.710;2022-11-15T01:43:52;9.08;91.68
67157;SHT31;54086;50.126;8.710;2022-11-15T01:48:46;9.18;91.49
67157;SHT31;54086;50.126;8.710;2022-11-15T01:51:13;9.14;91.64
67157;SHT31;54086;50.126;8.710;2022-11-15T01:53:43;9.16;91.63
67157;SHT31;54086;50.126;8.710;2022-11-15T01:56:16;9.22;91.61
67157;SHT31;54086;50.126;8.710;2022-11-15T01:58:43;9.28;91.36
67157;SHT31;54086;50.126;8.710;2022-11-15T02:01:11;9.35;91.02
67157;SHT31;54086;50.126;8.710;2022-11-15T02:03:52;9.39;90.87
67157;SHT31;54086;50.126;8.710;2022-11-15T02:06:20;9.42;90.92
67157;SHT31;54086;50.126;8.710;2022-11-15T02:08:46;9.49;90.71
67157;SHT31;54086;50.126;8.710;2022-11-15T02:11:12;9.49;90.59
67157;SHT31;54086;50.126;8.710;2022-11-15T02:13:38;9.56;90.46
67157;SHT31;54086;50.126;8.710;2022-11-15T02:18:37;9.56;90.69
67157;SHT31;54086;50.126;8.710;2022-11-15T02:29:09;9.63;90.32
67157;SHT31;54086;50.126;8.710;2022-11-15T02:31:50;9.66;90.38
67157;SHT31;54086;50.126;8.710;2022-11-15T02:34:21;9.61;90.22
67157;SHT31;54086;50.126;8.710;2022-11-15T02:37:09;9.61;90.17
67157;SHT31;54086;50.126;8.710;2022-11-15T02:42:26;9.79;89.65
67157;SHT31;54086;50.126;8.710;2022-11-15T02:45:13;9.81;89.52
67157;SHT31;54086;50.126;8.710;2022-11-15T02:47:43;9.86;89.07
67157;SHT31;54086;50.126;8.710;2022-11-15T02:50:14;9.81;89.51
67157;SHT31;54086;50.126;8.710;2022-11-15T02:52:43;9.77;89.56
67157;SHT31;54086;50.126;8.710;2022-11-15T02:55:32;9.76;89.47
67157;SHT31;54086;50.126;8.710;2022-11-15T03:04:12;9.61;89.79
67157;SHT31;54086;50.126;8.710;2022-11-15T03:06:55;9.66;89.83
67157;SHT31;54086;50.126;8.710;2022-11-15T03:11:59;9.57;89.98
67157;SHT31;54086;50.126;8.710;2022-11-15T03:14:32;9.51;90.24
67157;SHT31;54086;50.126;8.710;2022-11-15T03:17:16;9.44;90.32
67157;SHT31;54086;50.126;8.710;2022-11-15T03:19:48;9.42;90.44
67157;SHT31;54086;50.126;8.710;2022-11-15T03:22:18;9.35;90.60
67157;SHT31;54086;50.126;8.710;2022-11-15T03:24:46;9.25;90.79
67157;SHT31;54086;50.126;8.710;2022-11-15T03:27:15;9.20;90.75
67157;SHT31;54086;50.126;8.710;2022-11-15T03:29:49;9.25;90.92
67157;SHT31;54086;50.126;8.710;2022-11-15T03:32:19;9.26;90.92
67157;SHT31;54086;50.126;8.710;2022-11-15T03:34:52;9.25;90.80
67157;SHT31;54086;50.126;8.710;2022-11-15T03:37:21;9.22;90.87
67157;SHT31;54086;50.126;8.710;2022-11-15T03:39:47;9.23;90.94
67157;SHT31;54086;50.126;8.710;2022-11-15T03:42:28;9.19;90.96
67157;SHT31;54086;50.126;8.710;2022-11-15T03:45:03;9.20;90.94
67157;SHT31;54086;50.126;8.710;2022-11-15T03:50:19;9.16;90.85
67157;SHT31;54086;50.126;8.710;2022-11-15T03:52:47;9.08;90.99
67157;SHT31;54086;50.126;8.710;2022-11-15T03:55:16;9.05;91.14
67157;SHT31;54086;50.126;8.710;2022-11-15T03:57:42;9.07;91.11
67157;SHT31;54086;50.126;8.710;2022-11-15T04:00:08;9.04;91.22
67157;SHT31;54086;50.126;8.710;2022-11-15T04:02:34;9.05;91.36
67157;SHT31;54086;50.126;8.710;2022-11-15T04:04:59;9.07;91.15
67157;SHT31;54086;50.126;8.710;2022-11-15T04:07:25;9.08;91.00
67157;SHT31;54086;50.126;8.710;2022-11-15T04:09:50;9.15;90.76
67157;SHT31;54086;50.126;8.710;2022-11-15T04:12:36;9.30;90.51
67157;SHT31;54086;50.126;8.710;2022-11-15T04:15:08;9.33;90.29
67157;SHT31;54086;50.126;8.710;2022-11-15T04:17:38;9.29;90.28
67157;SHT31;54086;50.126;8.710;2022-11-15T04:20:05;9.42;89.96
67157;SHT31;54086;50.126;8.710;2022-11-15T04:22:52;9.39;90.11
67157;SHT31;54086;50.126;8.710;2022-11-15T04:25:36;9.39;89.98
67157;SHT31;54086;50.126;8.710;2022-11-15T04:28:02;9.42;90.15
67157;SHT31;54086;50.126;8.710;2022-11-15T04:30:27;9.47;90.12
67157;SHT31;54086;50.126;8.710;2022-11-15T04:32:53;9.40;90.42
67157;SHT31;54086;50.126;8.710;2022-11-15T04:35:18;9.36;90.50
67157;SHT31;54086;50.126;8.710;2022-11-15T04:37:43;9.43;90.50
67157;SHT31;54086;50.126;8.710;2022-11-15T04:40:09;9.39;90.79
67157;SHT31;54086;50.126;8.710;2022-11-15T04:42:34;9.43;90.78
67157;SHT31;54086;50.126;8.710;2022-11-15T04:45:00;9.47;90.65
67157;SHT31;54086;50.126;8.710;2022-11-15T04:47:25;9.38;90.88
67157;SHT31;54086;50.126;8.710;2022-11-15T04:49:50;9.42;90.95
67157;SHT31;54086;50.126;8.710;2022-11-15T04:52:16;9.44;90.96
67157;SHT31;54086;50.126;8.710;2022-11-15T04:54:41;9.43;90.84
67157;SHT31;54086;50.126;8.710;2022-11-15T04:57:08;9.42;90.87
67157;SHT31;54086;50.126;8.710;2022-11-15T04:59:33;9.40;90.95
67157;SHT31;54086;50.126;8.710;2022-11-15T05:01:58;9.40;90.93
67157;SHT31;54086;50.126;8.710;2022-11-15T05:04:24;9.42;90.75
67157;SHT31;54086;50.126;8.710;2022-11-15T05:06:51;9.46;90.60
67157;SHT31;54086;50.126;8.710;2022-11-15T05:09:17;9.50;90.40
67157;SHT31;54086;50.126;8.710;2022-11-15T05:11:44;9.50;90.57
67157;SHT31;54086;50.126;8.710;2022-11-15T05:14:09;9.47;90.26
67157;SHT31;54086;50.126;8.710;2022-11-15T05:16:35;9.50;90.38
67157;SHT31;54086;50.126;8.710;2022-11-15T05:19:00;9.54;90.36
67157;SHT31;54086;50.126;8.710;2022-11-15T05:21:26;9.60;89.97
67157;SHT31;54086;50.126;8.710;2022-11-15T05:23:51;9.53;90.21
67157;SHT31;54086;50.126;8.710;2022-11-15T05:26:17;9.51;90.35
67157;SHT31;54086;50.126;8.710;2022-11-15T05:28:44;9.47;90.47
67157;SHT31;54086;50.126;8.710;2022-11-15T05:31:14;9.43;90.48
67157;SHT31;54086;50.126;8.710;2022-11-15T05:33:41;9.38;90.67
67157;SHT31;54086;50.126;8.710;2022-11-15T05:38:53;9.39;90.49
67157;SHT31;54086;50.126;8.710;2022-11-15T05:41:21;9.40;90.45
67157;SHT31;54086;50.126;8.710;2022-11-15T05:43:48;9.38;90.46
67157;SHT31;54086;50.126;8.710;2022-11-15T05:46:15;9.33;90.66
67157;SHT31;54086;50.126;8.710;2022-11-15T05:48:45;9.32;90.74
67157;SHT31;54086;50.126;8.710;2022-11-15T05:51:13;9.29;90.68
67157;SHT31;54086;50.126;8.710;2022-11-15T05:53:39;9.30;90.72
67157;SHT31;54086;50.126;8.710;2022-11-15T05:56:05;9.32;90.79
67157;SHT31;54086;50.126;8.710;2022-11-15T05:58:32;9.29;90.64
67157;SHT31;54086;50.126;8.710;2022-11-15T06:00:58;9.29;90.74
67157;SHT31;54086;50.126;8.710;2022-11-15T06:03:24;9.33;90.65
67157;SHT31;54086;50.126;8.710;2022-11-15T06:05:49;9.32;90.64
67157;SHT31;54086;50.126;8.710;2022-11-15T06:08:15;9.33;90.69
67157;SHT31;54086;50.126;8.710;2022-11-15T06:10:40;9.30;90.86
67157;SHT31;54086;50.126;8.710;2022-11-15T06:13:06;9.32;90.96
67157;SHT31;54086;50.126;8.710;2022-11-15T06:15:32;9.30;90.89
67157;SHT31;54086;50.126;8.710;2022-11-15T06:17:59;9.39;90.75
67157;SHT31;54086;50.126;8.710;2022-11-15T06:20:26;9.38;90.71
67157;SHT31;54086;50.126;8.710;2022-11-15T06:23:02;9.42;90.54
67157;SHT31;54086;50.126;8.710;2022-11-15T06:25:29;9.44;90.63
67157;SHT31;54086;50.126;8.710;2022-11-15T06:27:56;9.49;90.49
67157;SHT31;54086;50.126;8.710;2022-11-15T06:30:22;9.54;90.28
67157;SHT31;54086;50.126;8.710;2022-11-15T06:32:48;9.66;90.33
67157;SHT31;54086;50.126;8.710;2022-11-15T06:35:14;9.69;90.23
67157;SHT31;54086;50.126;8.710;2022-11-15T06:37:39;9.74;90.10
67157;SHT31;54086;50.126;8.710;2022-11-15T06:40:06;9.80;90.17
67157;SHT31;54086;50.126;8.710;2022-11-15T06:42:32;9.79;89.99
67157;SHT31;54086;50.126;8.710;2022-11-15T06:44:57;9.87;89.76
67157;SHT31;54086;50.126;8.710;2022-11-15T06:47:23;9.81;89.91
67157;SHT31;54086;50.126;8.710;2022-11-15T06:49:48;9.90;89.77
67157;SHT31;54086;50.126;8.710;2022-11-15T06:52:13;9.93;89.72
67157;SHT31;54086;50.126;8.710;2022-11-15T06:54:39;9.86;89.73
67157;SHT31;54086;50.126;8.710;2022-11-15T06:57:14;9.93;89.78
67157;SHT31;54086;50.126;8.710;2022-11-15T06:59:39;9.91;89.66
67157;SHT31;54086;50.126;8.710;2022-11-15T07:02:05;9.95;89.89
67157;SHT31;54086;50.126;8.710;2022-11-15T07:04:30;10.01;89.67
67157;SHT31;54086;50.126;8.710;2022-11-15T07:06:56;9.98;89.72
67157;SHT31;54086;50.126;8.710;2022-11-15T07:09:21;10.00;89.84
67157;SHT31;54086;50.126;8.710;2022-11-15T07:11:47;10.00;89.73
67157;SHT31;54086;50.126;8.710;2022-11-15T07:14:12;10.02;89.68
67157;SHT31;54086;50.126;8.710;2022-11-15T07:16:37;10.07;89.35
67157;SHT31;54086;50.126;8.710;2022-11-15T07:19:03;10.14;89.31
67157;SHT31;54086;50.126;8.710;2022-11-15T07:21:35;10.05;89.10
67157;SHT31;54086;50.126;8.710;2022-11-15T07:24:00;10.02;89.15
67157;SHT31;54086;50.126;8.710;2022-11-15T07:26:25;10.05;89.19
67157;SHT31;54086;50.126;8.710;2022-11-15T07:28:51;10.14;88.73
67157;SHT31;54086;50.126;8.710;2022-11-15T07:31:16;10.28;88.50
67157;SHT31;54086;50.126;8.710;2022-11-15T07:33:41;10.28;88.36
67157;SHT31;54086;50.126;8.710;2022-11-15T07:36:07;10.41;88.00
67157;SHT31;54086;50.126;8.710;2022-11-15T07:38:34;10.72;87.46
67157;SHT31;54086;50.126;8.710;2022-11-15T07:41:02;11.00;86.46
67157;SHT31;54086;50.126;8.710;2022-11-15T07:43:28;11.23;85.58
67157;SHT31;54086;50.126;8.710;2022-11-15T07:46:08;11.17;85.30
67157;SHT31;54086;50.126;8.710;2022-11-15T07:48:38;11.03;86.03
67157;SHT31;54086;50.126;8.710;2022-11-15T07:51:07;11.21;85.63
67157;SHT31;54086;50.126;8.710;2022-11-15T07:53:32;11.03;86.00
67157;SHT31;54086;50.126;8.710;2022-11-15T07:55:58;10.75;86.69
67157;SHT31;54086;50.126;8.710;2022-11-15T07:58:23;10.69;86.89
67157;SHT31;54086;50.126;8.710;2022-11-15T08:00:49;10.65;87.32
67157;SHT31;54086;50.126;8.710;2022-11-15T08:03:16;10.59;87.21
67157;SHT31;54086;50.126;8.710;2022-11-15T08:05:42;10.56;87.72
67157;SHT31;54086;50.126;8.710;2022-11-15T08:08:10;10.62;87.50
67157;SHT31;54086;50.126;8.710;2022-11-15T08:10:36;10.73;87.18
67157;SHT31;54086;50.126;8.710;2022-11-15T08:13:07;10.76;87.31
67157;SHT31;54086;50.126;8.710;2022-11-15T08:15:34;10.77;87.21
67157;SHT31;54086;50.126;8.710;2022-11-15T08:18:03;10.79;86.92
67157;SHT31;54086;50.126;8.710;2022-11-15T08:20:29;10.89;87.03
67157;SHT31;54086;50.126;8.710;2022-11-15T08:22:56;10.87;86.80
67157;SHT31;54086;50.126;8.710;2022-11-15T08:25:23;10.97;86.30
67157;SHT31;54086;50.126;8.710;2022-11-15T08:27:51;10.97;86.52
67157;SHT31;54086;50.126;8.710;2022-11-15T08:30:16;11.01;86.57
67157;SHT31;54086;50.126;8.710;2022-11-15T08:32:42;11.07;85.91
67157;SHT31;54086;50.126;8.710;2022-11-15T08:35:07;11.14;86.16
67157;SHT31;54086;50.126;8.710;2022-11-15T08:37:33;11.13;86.05
67157;SHT31;54086;50.126;8.710;2022-11-15T08:39:59;11.23;85.68
67157;SHT31;54086;50.126;8.710;2022-11-15T08:42:24;11.20;85.78
67157;SHT31;54086;50.126;8.710;2022-11-15T08:44:49;11.30;85.78
67157;SHT31;54086;50.126;8.710;2022-11-15T08:47:15;11.34;85.48
67157;SHT31;54086;50.126;8.710;2022-11-15T08:49:40;11.30;85.59
67157;SHT31;54086;50.126;8.710;2022-11-15T08:52:05;11.26;85.69
67157;SHT31;54086;50.126;8.710;2022-11-15T08:54:31;11.26;85.63
67157;SHT31;54086;50.126;8.710;2022-11-15T08:56:57;11.30;85.77
67157;SHT31;54086;50.126;8.710;2022-11-15T08:59:22;11.39;85.39
67157;SHT31;54086;50.126;8.710;2022-11-15T09:01:47;11.38;85.36
67157;SHT31;54086;50.126;8.710;2022-11-15T09:04:13;11.39;85.29
67157;SHT31;54086;50.126;8.710;2022-11-15T09:06:38;11.48;84.92
67157;SHT31;54086;50.126;8.710;2022-11-15T09:09:04;11.50;85.16
67157;SHT31;54086;50.126;8.710;2022-11-15T09:11:29;11.59;84.91
67157;SHT31;54086;50.126;8.710;2022-11-15T09:13:54;11.65;85.14
67157;SHT31;54086;50.126;8.710;2022-11-15T09:16:20;11.69;84.95
67157;SHT31;54086;50.126;8.710;2022-11-15T09:18:45;11.85;84.64
67157;SHT31;54086;50.126;8.710;2022-11-15T09:21:11;11.98;84.20
67157;SHT31;54086;50.126;8.710;2022-11-15T09:23:36;11.86;83.97
67157;SHT31;54086;50.126;8.710;2022-11-15T09:26:04;11.83;84.16
67157;SHT31;54086;50.126;8.710;2022-11-15T09:28:31;11.98;84.05
67157;SHT31;54086;50.126;8.710;2022-11-15T09:31:04;12.06;83.90
67157;SHT31;54086;50.126;8.710;2022-11-15T09:33:30;12.06;84.04
67157;SHT31;54086;50.126;8.710;2022-11-15T09:36:05;12.19;83.92
67157;SHT31;54086;50.126;8.710;2022-11-15T09:38:31;12.17;83.66
67157;SHT31;54086;50.126;8.710;2022-11-15T09:49:51;12.36;84.37
67157;SHT31;54086;50.126;8.710;2022-11-15T09:52:19;12.29;84.39
67157;SHT31;54086;50.126;8.710;2022-11-15T09:54:50;12.33;83.99
67157;SHT31;54086;50.126;8.710;2022-11-15T09:57:38;12.36;84.08
67157;SHT31;54086;50.126;8.710;2022-11-15T10:02:49;12.57;84.18
67157;SHT31;54086;50.126;8.710;2022-11-15T10:05:20;12.77;83.88
67157;SHT31;54086;50.126;8.710;2022-11-15T10:08:26;12.87;83.40
67157;SHT31;54086;50.126;8.710;2022-11-15T10:11:04;13.02;83.09
67157;SHT31;54086;50.126;8.710;2022-11-15T10:13:34;13.23;82.44
67157;SHT31;54086;50.126;8.710;2022-11-15T10:24:11;13.47;81.76
67157;SHT31;54086;50.126;8.710;2022-11-15T10:26:38;13.55;82.04
67157;SHT31;54086;50.126;8.710;2022-11-15T10:29:03;13.50;81.54
67157;SHT31;54086;50.126;8.710;2022-11-15T10:31:29;13.46;82.10
67157;SHT31;54086;50.126;8.710;2022-11-15T10:34:10;13.29;81.85
67157;SHT31;54086;50.126;8.710;2022-11-15T10:36:36;13.26;82.14
67157;SHT31;54086;50.126;8.710;2022-11-15T10:39:02;13.29;82.33
67157;SHT31;54086;50.126;8.710;2022-11-15T10:46:45;13.43;82.31
67157;SHT31;54086;50.126;8.710;2022-11-15T10:49:20;13.39;81.85
67157;SHT31;54086;50.126;8.710;2022-11-15T10:51:51;13.40;81.53
67157;SHT31;54086;50.126;8.710;2022-11-15T10:54:58;13.42;81.62
67157;SHT31;54086;50.126;8.710;2022-11-15T10:57:28;13.43;81.49
67157;SHT31;54086;50.126;8.710;2022-11-15T10:59:57;13.47;81.93
67157;SHT31;54086;50.126;8.710;2022-11-15T11:02:30;13.46;81.53
67157;SHT31;54086;50.126;8.710;2022-11-15T11:04:57;13.43;81.87
67157;SHT31;54086;50.126;8.710;2022-11-15T11:07:25;13.39;82.20
67157;SHT31;54086;50.126;8.710;2022-11-15T11:10:31;13.50;82.03
67157;SHT31;54086;50.126;8.710;2022-11-15T11:13:54;13.63;81.80
67157;SHT31;54086;50.126;8.710;2022-11-15T11:19:34;13.52;81.88
67157;SHT31;54086;50.126;8.710;2022-11-15T11:25:03;13.59;81.93
67157;SHT31;54086;50.126;8.710;2022-11-15T11:30:24;13.60;81.76
67157;SHT31;54086;50.126;8.710;2022-11-15T11:32:58;13.45;82.07
67157;SHT31;54086;50.126;8.710;2022-11-15T11:48:48;13.90;81.32
67157;SHT31;54086;50.126;8.710;2022-11-15T11:53:50;13.71;81.63
67157;SHT31;54086;50.126;8.710;2022-11-15T11:56:23;13.80;81.63
67157;SHT31;54086;50.126;8.710;2022-11-15T11:58:52;13.86;81.60
67157;SHT31;54086;50.126;8.710;2022-11-15T12:01:51;13.70;81.63
67157;SHT31;54086;50.126;8.710;2022-11-15T12:04:30;13.84;81.66
67157;SHT31;54086;50.126;8.710;2022-11-15T12:07:17;13.90;81.56
67157;SHT31;54086;50.126;8.710;2022-11-15T12:12:23;13.94;81.30
67157;SHT31;54086;50.126;8.710;2022-11-15T12:14:55;14.11;81.16
67157;SHT31;54086;50.126;8.710;2022-11-15T12:17:27;14.04;81.05
67157;SHT31;54086;50.126;8.710;2022-11-15T12:19:58;14.00;81.26
67157;SHT31;54086;50.126;8.710;2022-11-15T12:22:57;14.00;81.49
67157;SHT31;54086;50.126;8.710;2022-11-15T12:28:01;14.01;81.64
67157;SHT31;54086;50.126;8.710;2022-11-15T12:30:51;14.15;81.33
67157;SHT31;54086;50.126;8.710;2022-11-15T12:33:41;14.14;81.49
67157;SHT31;54086;50.126;8.710;2022-11-15T12:36:30;14.22;81.43
67157;SHT31;54086;50.126;8.710;2022-11-15T12:41:32;14.11;81.28
67157;SHT31;54086;50.126;8.710;2022-11-15T12:43:58;14.05;81.62
67157;SHT31;54086;50.126;8.710;2022-11-15T12:48:58;14.04;81.94
67157;SHT31;54086;50.126;8.710;2022-11-15T13:02:19;14.05;82.25
67157;SHT31;54086;50.126;8.710;2022-11-15T13:04:46;14.04;82.14
67157;SHT31;54086;50.126;8.710;2022-11-15T13:10:00;13.98;82.03
67157;SHT31;54086;50.126;8.710;2022-11-15T13:15:00;14.08;81.87
67157;SHT31;54086;50.126;8.710;2022-11-15T13:17:29;14.01;82.35
67157;SHT31;54086;50.126;8.710;2022-11-15T13:28:21;14.05;82.71
67157;SHT31;54086;50.126;8.710;2022-11-15T13:33:20;14.05;82.32
67157;SHT31;54086;50.126;8.710;2022-11-15T13:35:49;14.03;82.36
67157;SHT31;54086;50.126;8.710;2022-11-15T13:40:50;14.04;82.27
67157;SHT31;54086;50.126;8.710;2022-11-15T13:45:44;14.03;82.20
67157;SHT31;54086;50.126;8.710;2022-11-15T13:48:09;14.07;82.59
67157;SHT31;54086;50.126;8.710;2022-11-15T13:50:36;14.00;82.56
67157;SHT31;54086;50.126;8.710;2022-11-15T13:53:04;14.01;82.28
67157;SHT31;54086;50.126;8.710;2022-11-15T13:55:31;13.98;82.56
67157;SHT31;54086;50.126;8.710;2022-11-15T13:58:03;13.97;82.36
67157;SHT31;54086;50.126;8.710;2022-11-15T14:00:39;13.93;82.36
67157;SHT31;54086;50.126;8.710;2022-11-15T14:03:08;13.97;82.31
67157;SHT31;54086;50.126;8.710;2022-11-15T14:05:39;13.96;82.36
67157;SHT31;54086;50.126;8.710;2022-11-15T14:08:21;13.96;82.44
67157;SHT31;54086;50.126;8.710;2022-11-15T14:10:47;13.96;82.41
67157;SHT31;54086;50.126;8.710;2022-11-15T14:13:30;13.94;82.89
67157;SHT31;54086;50.126;8.710;2022-11-15T14:16:18;13.96;83.03
67157;SHT31;54086;50.126;8.710;2022-11-15T14:18:47;13.93;82.58
67157;SHT31;54086;50.126;8.710;2022-11-15T14:21:13;13.94;82.54
67157;SHT31;54086;50.126;8.710;2022-11-15T14:23:39;13.90;82.86
67157;SHT31;54086;50.126;8.710;2022-11-15T14:26:04;13.88;83.10
67157;SHT31;54086;50.126;8.710;2022-11-15T14:28:32;13.87;83.21
67157;SHT31;54086;50.126;8.710;2022-11-15T14:31:00;13.84;83.15
67157;SHT31;54086;50.126;8.710;2022-11-15T14:33:32;13.87;82.99
67157;SHT31;54086;50.126;8.710;2022-11-15T14:36:14;13.87;83.14
67157;SHT31;54086;50.126;8.710;2022-11-15T14:38:40;13.84;82.88
67157;SHT31;54086;50.126;8.710;2022-11-15T14:41:19;13.80;82.94
67157;SHT31;54086;50.126;8.710;2022-11-15T14:43:45;13.83;83.11
67157;SHT31;54086;50.126;8.710;2022-11-15T14:46:10;13.81;83.05
67157;SHT31;54086;50.126;8.710;2022-11-15T14:48:36;13.78;83.00
67157;SHT31;54086;50.126;8.710;2022-11-15T14:51:01;13.80;83.98
67157;SHT31;54086;50.126;8.710;2022-11-15T14:53:27;13.78;84.56
67157;SHT31;54086;50.126;8.710;2022-11-15T14:55:52;13.77;84.43
67157;SHT31;54086;50.126;8.710;2022-11-15T14:58:18;13.76;84.77
67157;SHT31;54086;50.126;8.710;2022-11-15T15:00:43;13.73;84.68
67157;SHT31;54086;50.126;8.710;2022-11-15T15:03:09;13.76;85.96
67157;SHT31;54086;50.126;8.710;2022-11-15T15:05:38;13.71;86.17
67157;SHT31;54086;50.126;8.710;2022-11-15T15:08:05;13.65;86.19
67157;SHT31;54086;50.126;8.710;2022-11-15T15:10:36;13.60;86.58
67157;SHT31;54086;50.126;8.710;2022-11-15T15:13:03;13.56;86.58
67157;SHT31;54086;50.126;8.710;2022-11-15T15:15:36;13.55;86.68
67157;SHT31;54086;50.126;8.710;2022-11-15T15:18:03;13.47;86.66
67157;SHT31;54086;50.126;8.710;2022-11-15T15:20:29;13.38;87.31
67157;SHT31;54086;50.126;8.710;2022-11-15T15:22:55;13.34;87.45
67157;SHT31;54086;50.126;8.710;2022-11-15T15:27:52;13.30;87.65
67157;SHT31;54086;50.126;8.710;2022-11-15T15:30:17;13.29;87.41
67157;SHT31;54086;50.126;8.710;2022-11-15T15:32:43;13.32;87.90
67157;SHT31;54086;50.126;8.710;2022-11-15T15:35:14;13.30;86.96
67157;SHT31;54086;50.126;8.710;2022-11-15T15:37:41;13.29;87.34
67157;SHT31;54086;50.126;8.710;2022-11-15T15:40:16;13.26;86.59
67157;SHT31;54086;50.126;8.710;2022-11-15T15:42:42;13.19;86.54
67157;SHT31;54086;50.126;8.710;2022-11-15T15:45:08;13.19;87.03
67157;SHT31;54086;50.126;8.710;2022-11-15T15:47:34;13.25;86.90
67157;SHT31;54086;50.126;8.710;2022-11-15T15:49:59;13.26;86.74
67157;SHT31;54086;50.126;8.710;2022-11-15T15:52:24;13.20;86.79
67157;SHT31;54086;50.126;8.710;2022-11-15T15:54:50;13.19;86.86
67157;SHT31;54086;50.126;8.710;2022-11-15T15:57:15;13.18;86.71
67157;SHT31;54086;50.126;8.710;2022-11-15T15:59:41;13.22;86.46
67157;SHT31;54086;50.126;8.710;2022-11-15T16:02:12;13.14;87.00
67157;SHT31;54086;50.126;8.710;2022-11-15T16:04:37;13.11;87.00
67157;SHT31;54086;50.126;8.710;2022-11-15T16:07:03;13.15;87.15
67157;SHT31;54086;50.126;8.710;2022-11-15T16:09:29;13.09;86.99
67157;SHT31;54086;50.126;8.710;2022-11-15T16:12:13;13.14;86.52
67157;SHT31;54086;50.126;8.710;2022-11-15T16:14:41;13.14;86.77
67157;SHT31;54086;50.126;8.710;2022-11-15T16:17:11;13.08;86.57
67157;SHT31;54086;50.126;8.710;2022-11-15T16:19:40;13.06;85.79
67157;SHT31;54086;50.126;8.710;2022-11-15T16:22:06;13.20;86.18
67157;SHT31;54086;50.126;8.710;2022-11-15T16:24:31;13.19;85.98
67157;SHT31;54086;50.126;8.710;2022-11-15T16:26:57;13.14;86.11
67157;SHT31;54086;50.126;8.710;2022-11-15T16:29:22;13.16;84.96
67157;SHT31;54086;50.126;8.710;2022-11-15T16:31:48;13.28;85.00
67157;SHT31;54086;50.126;8.710;2022-11-15T16:34:13;13.19;84.58
67157;SHT31;54086;50.126;8.710;2022-11-15T16:36:38;13.20;84.90
67157;SHT31;54086;50.126;8.710;2022-11-15T16:39:04;13.18;84.91
67157;SHT31;54086;50.126;8.710;2022-11-15T16:41:29;13.18;84.95
67157;SHT31;54086;50.126;8.710;2022-11-15T16:43:55;13.19;84.62
67157;SHT31;54086;50.126;8.710;2022-11-15T16:46:25;13.15;83.74
67157;SHT31;54086;50.126;8.710;2022-11-15T16:48:52;13.16;83.77
67157;SHT31;54086;50.126;8.710;2022-11-15T16:51:18;13.12;83.82
67157;SHT31;54086;50.126;8.710;2022-11-15T16:53:44;13.20;83.66
67157;SHT31;54086;50.126;8.710;2022-11-15T16:58:44;13.23;83.38
67157;SHT31;54086;50.126;8.710;2022-11-15T17:01:17;13.19;83.37
67157;SHT31;54086;50.126;8.710;2022-11-15T17:03:43;13.23;82.97
67157;SHT31;54086;50.126;8.710;2022-11-15T17:06:10;13.14;82.80
67157;SHT31;54086;50.126;8.710;2022-11-15T17:08:36;13.12;83.18
67157;SHT31;54086;50.126;8.710;2022-11-15T17:11:05;13.09;82.85
67157;SHT31;54086;50.126;8.710;2022-11-15T17:13:30;13.11;82.95
67157;SHT31;54086;50.126;8.710;2022-11-15T17:16:12;13.04;83.16
67157;SHT31;54086;50.126;8.710;2022-11-15T17:18:39;13.18;82.47
67157;SHT31;54086;50.126;8.710;2022-11-15T17:21:14;13.12;82.93
67157;SHT31;54086;50.126;8.710;2022-11-15T17:23:40;13.06;82.81
67157;SHT31;54086;50.126;8.710;2022-11-15T17:26:06;13.09;83.17
67157;SHT31;54086;50.126;8.710;2022-11-15T17:28:32;13.04;82.57
67157;SHT31;54086;50.126;8.710;2022-11-15T17:30:58;13.04;83.09
67157;SHT31;54086;50.126;8.710;2022-11-15T17:33:23;13.01;83.09
67157;SHT31;54086;50.126;8.710;2022-11-15T17:36:00;12.98;83.27
67157;SHT31;54086;50.126;8.710;2022-11-15T17:38:26;12.89;83.26
67157;SHT31;54086;50.126;8.710;2022-11-15T17:41:03;12.84;83.31
67157;SHT31;54086;50.126;8.710;2022-11-15T17:43:30;12.87;83.02
67157;SHT31;54086;50.126;8.710;2022-11-15T17:45:55;12.81;83.59
67157;SHT31;54086;50.126;8.710;2022-11-15T17:48:21;12.81;83.38
67157;SHT31;54086;50.126;8.710;2022-11-15T17:51:03;12.84;83.74
67157;SHT31;54086;50.126;8.710;2022-11-15T17:53:34;12.80;83.97
67157;SHT31;54086;50.126;8.710;2022-11-15T17:56:02;12.81;82.89